Aérodrome :
LOGIN :

S'inscrire | Disclaimer

   EN    FR    IT 

 










Légende :    VFR   VFR Marginal   IFR   IFR Intensif   IFR Très Intensif
Visi : 
Plafond : 
>= 8 km
>= 3000ft
5 à 8 km
1000 à 3000 ft
1500m à 5 km
500 à 1000 ft
800 à 1500m
200 à 500 ft
< 800m
< 200 ft
Symboles :   Orages  Brouillard  Fortes neiges  Fortes précipitations  Vent > 20 kt
SIGMETs :   Divers  Orages  Givrage  Turbulence  Onde Orograph.  Cendres Volcan.






- Altitude de l'aérodrome : 302 ft
- Code IATA : CGN


EDDK - Cologne Bonn

DERNIER METAR :
  • 091820Z AUTO VRB01KT 8000 1900 BR NSC M01/M01 Q1006 TEMPO 4000 BR

METARs EXPIRÉS :
  • 091750Z AUTO VRB02KT 9999 4600 BR FEW038 00/M01 Q1006 NOSIG
  • 091720Z AUTO VRB01KT 9999 FEW034 01/M01 Q1005 NOSIG
  • 091650Z AUTO 03003KT 9999 SCT033 01/M01 Q1005 NOSIG
  • 091620Z AUTO 34002KT 9999 FEW025 01/M01 Q1005 NOSIG

TAF TAF EDDK
Valide du 09 à 18h jusqu'au 11 à 00h UTC


091700Z 0918/1024 VRB03KT 9999 SCT025
TEMPO 1006/1010 4000 BR
PROB30
TEMPO 1006/1008 1200 BCFG
TEMPO 1016/1024 BKN013



MET'MAP, la Météo Aéronautique d'un coup d'oeil ! - Copyright ORBIFLY Décembre 2007 - Disclaimer

ORBIFLY MET'MAP TEAM :

Programmation & Développement : Alexandra Zaïnal
Sur une idée originale de : Baudouin d'Aumeries
Soutien technique & logistique : Manuel Goepfert
Assistance : Marc-Olivier Méhu




SOURCES & CREDITS :

   NOAA